sensor_id;sensor_type;location;lat;lon;timestamp;P1;durP1;ratioP1;P2;durP2;ratioP2
11986;SDS011;6053;51.382;6.768;2023-07-31T00:01:42;2.58;;;1.50;;
11986;SDS011;6053;51.382;6.768;2023-07-31T00:04:20;2.58;;;1.70;;
11986;SDS011;6053;51.382;6.768;2023-07-31T00:06:48;2.65;;;1.73;;
11986;SDS011;6053;51.382;6.768;2023-07-31T00:09:17;4.25;;;2.20;;
11986;SDS011;6053;51.382;6.768;2023-07-31T00:11:46;2.35;;;1.70;;
11986;SDS011;6053;51.382;6.768;2023-07-31T00:14:16;2.22;;;1.52;;
11986;SDS011;6053;51.382;6.768;2023-07-31T00:16:44;3.17;;;1.58;;
11986;SDS011;6053;51.382;6.768;2023-07-31T00:19:16;2.97;;;1.90;;
11986;SDS011;6053;51.382;6.768;2023-07-31T00:21:44;3.97;;;1.97;;
11986;SDS011;6053;51.382;6.768;2023-07-31T00:24:13;3.35;;;1.75;;
11986;SDS011;6053;51.382;6.768;2023-07-31T00:26:48;2.63;;;1.33;;
11986;SDS011;6053;51.382;6.768;2023-07-31T00:29:18;2.40;;;1.60;;
11986;SDS011;6053;51.382;6.768;2023-07-31T00:31:46;4.40;;;2.17;;
11986;SDS011;6053;51.382;6.768;2023-07-31T00:34:18;3.00;;;1.88;;
11986;SDS011;6053;51.382;6.768;2023-07-31T00:36:47;3.47;;;1.73;;
11986;SDS011;6053;51.382;6.768;2023-07-31T00:39:15;3.00;;;1.77;;
11986;SDS011;6053;51.382;6.768;2023-07-31T00:41:47;2.85;;;1.58;;
11986;SDS011;6053;51.382;6.768;2023-07-31T00:44:15;2.15;;;1.65;;
11986;SDS011;6053;51.382;6.768;2023-07-31T00:46:45;4.45;;;1.70;;
11986;SDS011;6053;51.382;6.768;2023-07-31T00:49:21;2.83;;;1.70;;
11986;SDS011;6053;51.382;6.768;2023-07-31T00:51:50;3.55;;;1.67;;
11986;SDS011;6053;51.382;6.768;2023-07-31T00:54:19;2.88;;;1.50;;
11986;SDS011;6053;51.382;6.768;2023-07-31T00:56:51;4.65;;;1.70;;
11986;SDS011;6053;51.382;6.768;2023-07-31T00:59:23;4.38;;;1.45;;
11986;SDS011;6053;51.382;6.768;2023-07-31T01:01:51;3.53;;;1.52;;
11986;SDS011;6053;51.382;6.768;2023-07-31T01:04:20;3.08;;;1.65;;
11986;SDS011;6053;51.382;6.768;2023-07-31T01:07:01;2.15;;;1.50;;
11986;SDS011;6053;51.382;6.768;2023-07-31T01:09:42;2.83;;;1.50;;
11986;SDS011;6053;51.382;6.768;2023-07-31T01:12:21;2.33;;;1.50;;
11986;SDS011;6053;51.382;6.768;2023-07-31T01:15:06;2.35;;;1.30;;
11986;SDS011;6053;51.382;6.768;2023-07-31T01:17:37;3.15;;;1.75;;
11986;SDS011;6053;51.382;6.768;2023-07-31T01:20:18;3.03;;;1.58;;
11986;SDS011;6053;51.382;6.768;2023-07-31T01:26:06;1.70;;;1.38;;
11986;SDS011;6053;51.382;6.768;2023-07-31T01:28:44;3.03;;;1.77;;
11986;SDS011;6053;51.382;6.768;2023-07-31T01:31:20;3.70;;;1.60;;
11986;SDS011;6053;51.382;6.768;2023-07-31T01:33:56;3.55;;;1.80;;
11986;SDS011;6053;51.382;6.768;2023-07-31T01:36:28;2.72;;;1.60;;
11986;SDS011;6053;51.382;6.768;2023-07-31T01:39:01;5.13;;;1.95;;
11986;SDS011;6053;51.382;6.768;2023-07-31T01:41:34;3.20;;;1.90;;
11986;SDS011;6053;51.382;6.768;2023-07-31T01:44:03;3.08;;;1.50;;
11986;SDS011;6053;51.382;6.768;2023-07-31T01:46:35;2.63;;;1.60;;
11986;SDS011;6053;51.382;6.768;2023-07-31T01:49:05;3.80;;;1.80;;
11986;SDS011;6053;51.382;6.768;2023-07-31T01:51:39;3.47;;;1.70;;
11986;SDS011;6053;51.382;6.768;2023-07-31T01:54:08;2.40;;;1.60;;
11986;SDS011;6053;51.382;6.768;2023-07-31T01:56:38;2.60;;;1.52;;
11986;SDS011;6053;51.382;6.768;2023-07-31T01:59:07;3.90;;;1.73;;
11986;SDS011;6053;51.382;6.768;2023-07-31T02:01:36;3.25;;;1.52;;
11986;SDS011;6053;51.382;6.768;2023-07-31T02:04:05;3.03;;;1.63;;
11986;SDS011;6053;51.382;6.768;2023-07-31T02:06:33;5.15;;;2.20;;
11986;SDS011;6053;51.382;6.768;2023-07-31T02:09:08;2.30;;;1.70;;
11986;SDS011;6053;51.382;6.768;2023-07-31T02:11:41;2.40;;;1.75;;
11986;SDS011;6053;51.382;6.768;2023-07-31T02:14:10;5.90;;;2.10;;
11986;SDS011;6053;51.382;6.768;2023-07-31T02:16:40;1.50;;;1.40;;
11986;SDS011;6053;51.382;6.768;2023-07-31T02:19:10;5.72;;;1.85;;
11986;SDS011;6053;51.382;6.768;2023-07-31T02:21:38;5.05;;;1.80;;
11986;SDS011;6053;51.382;6.768;2023-07-31T02:24:07;3.58;;;1.50;;
11986;SDS011;6053;51.382;6.768;2023-07-31T02:26:35;5.47;;;1.75;;
11986;SDS011;6053;51.382;6.768;2023-07-31T02:29:06;3.33;;;1.70;;
11986;SDS011;6053;51.382;6.768;2023-07-31T02:31:34;3.50;;;1.70;;
11986;SDS011;6053;51.382;6.768;2023-07-31T02:34:09;2.78;;;1.70;;
11986;SDS011;6053;51.382;6.768;2023-07-31T02:36:44;5.60;;;1.40;;
11986;SDS011;6053;51.382;6.768;2023-07-31T02:39:13;3.90;;;1.67;;
11986;SDS011;6053;51.382;6.768;2023-07-31T02:41:41;3.65;;;1.77;;
11986;SDS011;6053;51.382;6.768;2023-07-31T02:44:11;3.10;;;1.80;;
11986;SDS011;6053;51.382;6.768;2023-07-31T02:46:43;5.97;;;1.67;;
11986;SDS011;6053;51.382;6.768;2023-07-31T02:49:15;2.50;;;1.33;;
11986;SDS011;6053;51.382;6.768;2023-07-31T02:51:44;5.50;;;1.85;;
11986;SDS011;6053;51.382;6.768;2023-07-31T02:54:15;3.40;;;1.77;;
11986;SDS011;6053;51.382;6.768;2023-07-31T02:56:44;2.97;;;1.30;;
11986;SDS011;6053;51.382;6.768;2023-07-31T02:59:22;4.72;;;1.75;;
11986;SDS011;6053;51.382;6.768;2023-07-31T03:01:51;2.67;;;1.60;;
11986;SDS011;6053;51.382;6.768;2023-07-31T03:04:20;2.95;;;1.58;;
11986;SDS011;6053;51.382;6.768;2023-07-31T03:06:53;2.47;;;1.48;;
11986;SDS011;6053;51.382;6.768;2023-07-31T03:09:21;5.10;;;1.77;;
11986;SDS011;6053;51.382;6.768;2023-07-31T03:11:53;4.20;;;1.90;;
11986;SDS011;6053;51.382;6.768;2023-07-31T03:14:26;3.35;;;2.00;;
11986;SDS011;6053;51.382;6.768;2023-07-31T03:16:54;2.70;;;1.42;;
11986;SDS011;6053;51.382;6.768;2023-07-31T03:19:23;4.15;;;1.83;;
11986;SDS011;6053;51.382;6.768;2023-07-31T03:21:52;2.30;;;1.57;;
11986;SDS011;6053;51.382;6.768;2023-07-31T03:24:21;1.50;;;1.23;;
11986;SDS011;6053;51.382;6.768;2023-07-31T03:26:49;2.17;;;1.40;;
11986;SDS011;6053;51.382;6.768;2023-07-31T03:29:18;3.80;;;1.90;;
11986;SDS011;6053;51.382;6.768;2023-07-31T03:31:54;3.73;;;1.87;;
11986;SDS011;6053;51.382;6.768;2023-07-31T03:34:23;3.60;;;1.50;;
11986;SDS011;6053;51.382;6.768;2023-07-31T03:36:51;5.25;;;2.00;;
11986;SDS011;6053;51.382;6.768;2023-07-31T03:39:23;4.47;;;2.00;;
11986;SDS011;6053;51.382;6.768;2023-07-31T03:41:51;1.95;;;1.40;;
11986;SDS011;6053;51.382;6.768;2023-07-31T03:44:23;2.50;;;1.50;;
11986;SDS011;6053;51.382;6.768;2023-07-31T03:46:51;3.87;;;1.50;;
11986;SDS011;6053;51.382;6.768;2023-07-31T03:49:24;2.25;;;1.40;;
11986;SDS011;6053;51.382;6.768;2023-07-31T03:51:56;2.83;;;1.70;;
11986;SDS011;6053;51.382;6.768;2023-07-31T03:54:31;3.47;;;1.73;;
11986;SDS011;6053;51.382;6.768;2023-07-31T03:57:10;2.33;;;1.63;;
11986;SDS011;6053;51.382;6.768;2023-07-31T03:59:39;5.63;;;2.03;;
11986;SDS011;6053;51.382;6.768;2023-07-31T04:02:13;3.03;;;1.58;;
11986;SDS011;6053;51.382;6.768;2023-07-31T04:04:43;1.83;;;1.33;;
11986;SDS011;6053;51.382;6.768;2023-07-31T04:07:22;5.65;;;1.70;;
11986;SDS011;6053;51.382;6.768;2023-07-31T04:09:57;2.65;;;1.27;;
11986;SDS011;6053;51.382;6.768;2023-07-31T04:12:35;3.85;;;1.80;;
11986;SDS011;6053;51.382;6.768;2023-07-31T04:15:04;2.45;;;1.25;;
11986;SDS011;6053;51.382;6.768;2023-07-31T04:17:33;3.85;;;1.73;;
11986;SDS011;6053;51.382;6.768;2023-07-31T04:20:04;3.08;;;1.50;;
11986;SDS011;6053;51.382;6.768;2023-07-31T04:22:33;1.95;;;1.25;;
11986;SDS011;6053;51.382;6.768;2023-07-31T04:25:02;2.75;;;1.70;;
11986;SDS011;6053;51.382;6.768;2023-07-31T04:27:34;3.40;;;1.65;;
11986;SDS011;6053;51.382;6.768;2023-07-31T04:30:06;2.20;;;1.58;;
11986;SDS011;6053;51.382;6.768;2023-07-31T04:32:35;1.88;;;1.38;;
11986;SDS011;6053;51.382;6.768;2023-07-31T04:35:11;3.50;;;1.38;;
11986;SDS011;6053;51.382;6.768;2023-07-31T04:37:42;2.75;;;1.60;;
11986;SDS011;6053;51.382;6.768;2023-07-31T04:40:15;2.42;;;1.60;;
11986;SDS011;6053;51.382;6.768;2023-07-31T04:42:46;1.75;;;1.15;;
11986;SDS011;6053;51.382;6.768;2023-07-31T04:45:15;2.60;;;1.63;;
11986;SDS011;6053;51.382;6.768;2023-07-31T04:47:49;1.42;;;1.23;;
11986;SDS011;6053;51.382;6.768;2023-07-31T04:50:19;2.33;;;1.25;;
11986;SDS011;6053;51.382;6.768;2023-07-31T04:52:47;4.03;;;1.83;;
11986;SDS011;6053;51.382;6.768;2023-07-31T04:55:22;2.85;;;1.80;;
11986;SDS011;6053;51.382;6.768;2023-07-31T04:57:51;2.78;;;1.65;;
11986;SDS011;6053;51.382;6.768;2023-07-31T05:00:19;2.70;;;1.70;;
11986;SDS011;6053;51.382;6.768;2023-07-31T05:02:51;1.70;;;1.50;;
11986;SDS011;6053;51.382;6.768;2023-07-31T05:05:30;2.27;;;1.60;;
11986;SDS011;6053;51.382;6.768;2023-07-31T05:07:59;2.22;;;1.58;;
11986;SDS011;6053;51.382;6.768;2023-07-31T05:10:27;3.47;;;1.77;;
11986;SDS011;6053;51.382;6.768;2023-07-31T05:12:59;1.90;;;1.50;;
11986;SDS011;6053;51.382;6.768;2023-07-31T05:15:28;1.65;;;1.50;;
11986;SDS011;6053;51.382;6.768;2023-07-31T05:17:59;5.68;;;1.55;;
11986;SDS011;6053;51.382;6.768;2023-07-31T05:20:35;3.15;;;1.50;;
11986;SDS011;6053;51.382;6.768;2023-07-31T05:23:03;4.05;;;1.60;;
11986;SDS011;6053;51.382;6.768;2023-07-31T05:25:32;2.70;;;1.43;;
11986;SDS011;6053;51.382;6.768;2023-07-31T05:28:15;2.03;;;1.23;;
11986;SDS011;6053;51.382;6.768;2023-07-31T05:30:44;2.72;;;1.60;;
11986;SDS011;6053;51.382;6.768;2023-07-31T05:33:12;3.73;;;1.50;;
11986;SDS011;6053;51.382;6.768;2023-07-31T05:35:45;4.85;;;1.70;;
11986;SDS011;6053;51.382;6.768;2023-07-31T05:38:14;1.58;;;1.17;;
11986;SDS011;6053;51.382;6.768;2023-07-31T05:40:46;3.33;;;1.63;;
11986;SDS011;6053;51.382;6.768;2023-07-31T05:43:15;1.67;;;1.43;;
11986;SDS011;6053;51.382;6.768;2023-07-31T05:45:43;4.38;;;1.60;;
11986;SDS011;6053;51.382;6.768;2023-07-31T05:48:12;2.70;;;1.58;;
11986;SDS011;6053;51.382;6.768;2023-07-31T05:50:41;2.15;;;1.50;;
11986;SDS011;6053;51.382;6.768;2023-07-31T05:53:12;3.22;;;1.80;;
11986;SDS011;6053;51.382;6.768;2023-07-31T05:55:44;1.42;;;1.10;;
11986;SDS011;6053;51.382;6.768;2023-07-31T05:58:15;2.90;;;1.30;;
11986;SDS011;6053;51.382;6.768;2023-07-31T06:00:47;2.88;;;1.27;;
11986;SDS011;6053;51.382;6.768;2023-07-31T06:03:15;2.55;;;1.63;;
11986;SDS011;6053;51.382;6.768;2023-07-31T06:05:44;1.70;;;1.30;;
11986;SDS011;6053;51.382;6.768;2023-07-31T06:08:17;1.63;;;1.38;;
11986;SDS011;6053;51.382;6.768;2023-07-31T06:10:46;1.88;;;1.02;;
11986;SDS011;6053;51.382;6.768;2023-07-31T06:13:14;2.58;;;1.65;;
11986;SDS011;6053;51.382;6.768;2023-07-31T06:15:43;1.48;;;1.30;;
11986;SDS011;6053;51.382;6.768;2023-07-31T06:18:15;2.90;;;1.50;;
11986;SDS011;6053;51.382;6.768;2023-07-31T06:20:46;1.83;;;1.30;;
11986;SDS011;6053;51.382;6.768;2023-07-31T06:23:21;1.35;;;1.20;;
11986;SDS011;6053;51.382;6.768;2023-07-31T06:25:49;1.75;;;1.30;;
11986;SDS011;6053;51.382;6.768;2023-07-31T06:28:21;2.40;;;1.35;;
11986;SDS011;6053;51.382;6.768;2023-07-31T06:30:57;1.52;;;1.42;;
11986;SDS011;6053;51.382;6.768;2023-07-31T06:33:27;3.03;;;1.30;;
11986;SDS011;6053;51.382;6.768;2023-07-31T06:35:59;2.30;;;1.40;;
11986;SDS011;6053;51.382;6.768;2023-07-31T06:38:28;4.70;;;1.58;;
11986;SDS011;6053;51.382;6.768;2023-07-31T06:40:57;5.30;;;1.75;;
11986;SDS011;6053;51.382;6.768;2023-07-31T06:43:26;3.00;;;1.80;;
11986;SDS011;6053;51.382;6.768;2023-07-31T06:45:55;3.53;;;1.67;;
11986;SDS011;6053;51.382;6.768;2023-07-31T06:48:26;4.47;;;1.87;;
11986;SDS011;6053;51.382;6.768;2023-07-31T06:50:55;1.85;;;1.65;;
11986;SDS011;6053;51.382;6.768;2023-07-31T06:53:24;1.30;;;1.20;;
11986;SDS011;6053;51.382;6.768;2023-07-31T06:56:00;1.63;;;1.50;;
11986;SDS011;6053;51.382;6.768;2023-07-31T06:58:28;2.10;;;1.35;;
11986;SDS011;6053;51.382;6.768;2023-07-31T07:01:06;1.58;;;1.40;;
11986;SDS011;6053;51.382;6.768;2023-07-31T07:03:37;1.60;;;1.50;;
11986;SDS011;6053;51.382;6.768;2023-07-31T07:06:05;2.90;;;1.42;;
11986;SDS011;6053;51.382;6.768;2023-07-31T07:08:37;3.47;;;1.67;;
11986;SDS011;6053;51.382;6.768;2023-07-31T07:11:07;2.90;;;1.60;;
11986;SDS011;6053;51.382;6.768;2023-07-31T07:13:42;1.60;;;1.50;;
11986;SDS011;6053;51.382;6.768;2023-07-31T07:16:10;2.35;;;1.50;;
11986;SDS011;6053;51.382;6.768;2023-07-31T07:18:42;1.40;;;1.30;;
11986;SDS011;6053;51.382;6.768;2023-07-31T07:21:23;2.58;;;1.15;;
11986;SDS011;6053;51.382;6.768;2023-07-31T07:23:55;1.65;;;1.33;;
11986;SDS011;6053;51.382;6.768;2023-07-31T07:26:28;1.60;;;1.20;;
11986;SDS011;6053;51.382;6.768;2023-07-31T07:28:56;2.47;;;1.60;;
11986;SDS011;6053;51.382;6.768;2023-07-31T07:31:29;2.45;;;1.30;;
11986;SDS011;6053;51.382;6.768;2023-07-31T07:34:02;2.30;;;1.52;;
11986;SDS011;6053;51.382;6.768;2023-07-31T07:36:31;1.95;;;1.35;;
11986;SDS011;6053;51.382;6.768;2023-07-31T07:39:00;1.00;;;0.90;;
11986;SDS011;6053;51.382;6.768;2023-07-31T07:41:29;1.83;;;1.45;;
11986;SDS011;6053;51.382;6.768;2023-07-31T07:44:01;4.20;;;1.30;;
11986;SDS011;6053;51.382;6.768;2023-07-31T07:46:29;2.42;;;1.30;;
11986;SDS011;6053;51.382;6.768;2023-07-31T07:49:04;1.23;;;1.10;;
11986;SDS011;6053;51.382;6.768;2023-07-31T07:51:33;2.92;;;1.50;;
11986;SDS011;6053;51.382;6.768;2023-07-31T07:54:04;2.37;;;1.30;;
11986;SDS011;6053;51.382;6.768;2023-07-31T07:56:40;3.75;;;1.60;;
11986;SDS011;6053;51.382;6.768;2023-07-31T07:59:09;1.65;;;1.55;;
11986;SDS011;6053;51.382;6.768;2023-07-31T08:01:37;1.58;;;1.15;;
11986;SDS011;6053;51.382;6.768;2023-07-31T08:04:06;1.30;;;1.13;;
11986;SDS011;6053;51.382;6.768;2023-07-31T08:06:35;1.48;;;1.20;;
11986;SDS011;6053;51.382;6.768;2023-07-31T08:09:07;1.40;;;0.93;;
11986;SDS011;6053;51.382;6.768;2023-07-31T08:11:35;1.25;;;1.15;;
11986;SDS011;6053;51.382;6.768;2023-07-31T08:14:05;1.57;;;1.00;;
11986;SDS011;6053;51.382;6.768;2023-07-31T08:16:36;1.07;;;0.97;;
11986;SDS011;6053;51.382;6.768;2023-07-31T08:19:06;1.47;;;1.20;;
11986;SDS011;6053;51.382;6.768;2023-07-31T08:21:34;1.75;;;1.20;;
11986;SDS011;6053;51.382;6.768;2023-07-31T08:24:03;1.35;;;1.10;;
11986;SDS011;6053;51.382;6.768;2023-07-31T08:26:32;2.47;;;1.30;;
11986;SDS011;6053;51.382;6.768;2023-07-31T08:29:02;1.10;;;1.00;;
11986;SDS011;6053;51.382;6.768;2023-07-31T08:31:30;1.20;;;1.05;;
11986;SDS011;6053;51.382;6.768;2023-07-31T08:33:59;2.67;;;1.20;;
11986;SDS011;6053;51.382;6.768;2023-07-31T08:36:28;2.40;;;0.90;;
11986;SDS011;6053;51.382;6.768;2023-07-31T08:39:00;1.80;;;0.80;;
11986;SDS011;6053;51.382;6.768;2023-07-31T08:41:30;1.30;;;1.00;;
11986;SDS011;6053;51.382;6.768;2023-07-31T08:44:02;1.90;;;0.90;;
11986;SDS011;6053;51.382;6.768;2023-07-31T08:46:31;1.20;;;1.02;;
11986;SDS011;6053;51.382;6.768;2023-07-31T08:49:02;2.38;;;1.40;;
11986;SDS011;6053;51.382;6.768;2023-07-31T08:51:33;1.52;;;1.10;;
11986;SDS011;6053;51.382;6.768;2023-07-31T08:54:02;0.90;;;0.90;;
11986;SDS011;6053;51.382;6.768;2023-07-31T08:56:31;1.77;;;0.97;;
11986;SDS011;6053;51.382;6.768;2023-07-31T08:59:05;1.13;;;1.02;;
11986;SDS011;6053;51.382;6.768;2023-07-31T09:01:37;1.20;;;1.08;;
11986;SDS011;6053;51.382;6.768;2023-07-31T09:04:10;1.50;;;1.10;;
11986;SDS011;6053;51.382;6.768;2023-07-31T09:06:43;1.73;;;1.05;;
11986;SDS011;6053;51.382;6.768;2023-07-31T09:09:26;0.82;;;0.82;;
11986;SDS011;6053;51.382;6.768;2023-07-31T09:11:55;0.93;;;0.93;;
11986;SDS011;6053;51.382;6.768;2023-07-31T09:14:30;1.60;;;1.10;;
11986;SDS011;6053;51.382;6.768;2023-07-31T09:16:59;1.88;;;1.10;;
11986;SDS011;6053;51.382;6.768;2023-07-31T09:19:32;1.30;;;1.20;;
11986;SDS011;6053;51.382;6.768;2023-07-31T09:22:06;1.30;;;1.10;;
11986;SDS011;6053;51.382;6.768;2023-07-31T09:24:34;0.80;;;0.80;;
11986;SDS011;6053;51.382;6.768;2023-07-31T09:27:03;1.25;;;1.10;;
11986;SDS011;6053;51.382;6.768;2023-07-31T09:29:42;1.63;;;1.13;;
11986;SDS011;6053;51.382;6.768;2023-07-31T09:32:15;1.10;;;1.00;;
11986;SDS011;6053;51.382;6.768;2023-07-31T09:34:44;0.60;;;0.60;;
11986;SDS011;6053;51.382;6.768;2023-07-31T09:37:13;1.08;;;0.98;;
11986;SDS011;6053;51.382;6.768;2023-07-31T09:39:47;1.17;;;1.08;;
11986;SDS011;6053;51.382;6.768;2023-07-31T09:42:26;1.40;;;1.10;;
11986;SDS011;6053;51.382;6.768;2023-07-31T09:45:09;1.05;;;0.90;;
11986;SDS011;6053;51.382;6.768;2023-07-31T09:47:46;1.02;;;0.80;;
11986;SDS011;6053;51.382;6.768;2023-07-31T09:50:15;0.90;;;0.88;;
11986;SDS011;6053;51.382;6.768;2023-07-31T09:52:47;0.98;;;0.85;;
11986;SDS011;6053;51.382;6.768;2023-07-31T09:55:15;0.80;;;0.80;;
11986;SDS011;6053;51.382;6.768;2023-07-31T09:57:45;1.00;;;1.00;;
11986;SDS011;6053;51.382;6.768;2023-07-31T10:00:19;0.98;;;0.80;;
11986;SDS011;6053;51.382;6.768;2023-07-31T10:02:51;1.77;;;0.68;;
11986;SDS011;6053;51.382;6.768;2023-07-31T10:05:20;0.63;;;0.63;;
11986;SDS011;6053;51.382;6.768;2023-07-31T10:07:51;0.90;;;0.80;;
11986;SDS011;6053;51.382;6.768;2023-07-31T10:10:23;1.20;;;0.90;;
11986;SDS011;6053;51.382;6.768;2023-07-31T10:12:54;1.80;;;1.00;;
11986;SDS011;6053;51.382;6.768;2023-07-31T10:15:25;1.23;;;1.13;;
11986;SDS011;6053;51.382;6.768;2023-07-31T10:17:57;1.00;;;0.90;;
11986;SDS011;6053;51.382;6.768;2023-07-31T10:20:26;1.10;;;1.00;;
11986;SDS011;6053;51.382;6.768;2023-07-31T10:22:56;0.85;;;0.82;;
11986;SDS011;6053;51.382;6.768;2023-07-31T10:25:32;1.08;;;0.98;;
11986;SDS011;6053;51.382;6.768;2023-07-31T10:28:04;1.15;;;0.93;;
11986;SDS011;6053;51.382;6.768;2023-07-31T10:30:35;0.98;;;0.90;;
11986;SDS011;6053;51.382;6.768;2023-07-31T10:33:05;1.15;;;1.02;;
11986;SDS011;6053;51.382;6.768;2023-07-31T10:35:34;0.63;;;0.60;;
11986;SDS011;6053;51.382;6.768;2023-07-31T10:38:09;1.05;;;0.95;;
11986;SDS011;6053;51.382;6.768;2023-07-31T10:40:39;1.42;;;0.93;;
11986;SDS011;6053;51.382;6.768;2023-07-31T10:43:08;1.13;;;1.00;;
11986;SDS011;6053;51.382;6.768;2023-07-31T10:45:39;1.33;;;0.93;;
11986;SDS011;6053;51.382;6.768;2023-07-31T10:48:12;0.93;;;0.80;;
11986;SDS011;6053;51.382;6.768;2023-07-31T10:50:48;1.20;;;1.10;;
11986;SDS011;6053;51.382;6.768;2023-07-31T10:53:25;1.92;;;1.30;;
11986;SDS011;6053;51.382;6.768;2023-07-31T10:55:59;1.40;;;1.03;;
11986;SDS011;6053;51.382;6.768;2023-07-31T10:58:32;2.00;;;1.20;;
11986;SDS011;6053;51.382;6.768;2023-07-31T11:01:04;1.00;;;0.90;;
11986;SDS011;6053;51.382;6.768;2023-07-31T11:03:43;0.90;;;0.87;;
11986;SDS011;6053;51.382;6.768;2023-07-31T11:06:13;1.48;;;0.95;;
11986;SDS011;6053;51.382;6.768;2023-07-31T11:08:45;0.80;;;0.80;;
11986;SDS011;6053;51.382;6.768;2023-07-31T11:11:16;1.27;;;1.17;;
11986;SDS011;6053;51.382;6.768;2023-07-31T11:13:50;0.80;;;0.80;;
11986;SDS011;6053;51.382;6.768;2023-07-31T11:16:24;0.90;;;0.90;;
11986;SDS011;6053;51.382;6.768;2023-07-31T11:18:59;1.52;;;1.00;;
11986;SDS011;6053;51.382;6.768;2023-07-31T11:21:28;1.05;;;0.90;;
11986;SDS011;6053;51.382;6.768;2023-07-31T11:24:00;2.17;;;0.90;;
11986;SDS011;6053;51.382;6.768;2023-07-31T11:26:28;1.23;;;1.10;;
11986;SDS011;6053;51.382;6.768;2023-07-31T11:28:57;1.17;;;1.03;;
11986;SDS011;6053;51.382;6.768;2023-07-31T11:31:39;2.85;;;1.20;;
11986;SDS011;6053;51.382;6.768;2023-07-31T11:34:10;1.50;;;1.00;;
11986;SDS011;6053;51.382;6.768;2023-07-31T11:36:42;1.10;;;1.00;;
11986;SDS011;6053;51.382;6.768;2023-07-31T11:39:21;1.40;;;1.00;;
11986;SDS011;6053;51.382;6.768;2023-07-31T11:42:01;1.00;;;0.80;;
11986;SDS011;6053;51.382;6.768;2023-07-31T11:44:44;0.90;;;0.90;;
11986;SDS011;6053;51.382;6.768;2023-07-31T11:47:16;1.17;;;1.02;;
11986;SDS011;6053;51.382;6.768;2023-07-31T11:49:45;1.27;;;1.00;;
11986;SDS011;6053;51.382;6.768;2023-07-31T11:52:13;1.50;;;0.73;;
11986;SDS011;6053;51.382;6.768;2023-07-31T11:54:49;1.25;;;0.60;;
11986;SDS011;6053;51.382;6.768;2023-07-31T11:57:18;1.07;;;0.97;;
11986;SDS011;6053;51.382;6.768;2023-07-31T11:59:47;0.90;;;0.77;;
11986;SDS011;6053;51.382;6.768;2023-07-31T12:02:24;1.48;;;0.80;;
11986;SDS011;6053;51.382;6.768;2023-07-31T12:04:53;0.75;;;0.75;;
11986;SDS011;6053;51.382;6.768;2023-07-31T12:07:25;0.70;;;0.70;;
11986;SDS011;6053;51.382;6.768;2023-07-31T12:10:02;0.70;;;0.70;;
11986;SDS011;6053;51.382;6.768;2023-07-31T12:12:31;1.38;;;0.82;;
11986;SDS011;6053;51.382;6.768;2023-07-31T12:15:03;1.20;;;0.80;;
11986;SDS011;6053;51.382;6.768;2023-07-31T12:17:50;2.22;;;0.88;;
11986;SDS011;6053;51.382;6.768;2023-07-31T12:20:27;1.20;;;0.70;;
11986;SDS011;6053;51.382;6.768;2023-07-31T12:22:59;1.10;;;0.63;;
11986;SDS011;6053;51.382;6.768;2023-07-31T12:25:44;1.17;;;0.80;;
11986;SDS011;6053;51.382;6.768;2023-07-31T12:28:13;0.80;;;0.80;;
11986;SDS011;6053;51.382;6.768;2023-07-31T12:30:49;0.80;;;0.80;;
11986;SDS011;6053;51.382;6.768;2023-07-31T12:33:21;0.80;;;0.80;;
11986;SDS011;6053;51.382;6.768;2023-07-31T12:36:00;0.90;;;0.90;;
11986;SDS011;6053;51.382;6.768;2023-07-31T12:38:30;1.92;;;0.73;;
11986;SDS011;6053;51.382;6.768;2023-07-31T12:41:01;0.75;;;0.70;;
11986;SDS011;6053;51.382;6.768;2023-07-31T12:43:31;1.15;;;0.77;;
11986;SDS011;6053;51.382;6.768;2023-07-31T12:46:02;0.70;;;0.70;;
11986;SDS011;6053;51.382;6.768;2023-07-31T12:48:36;1.55;;;1.00;;
11986;SDS011;6053;51.382;6.768;2023-07-31T12:51:05;0.75;;;0.75;;
11986;SDS011;6053;51.382;6.768;2023-07-31T12:53:34;0.75;;;0.60;;
11986;SDS011;6053;51.382;6.768;2023-07-31T12:56:03;0.60;;;0.60;;
11986;SDS011;6053;51.382;6.768;2023-07-31T12:58:34;1.00;;;0.68;;
11986;SDS011;6053;51.382;6.768;2023-07-31T13:01:03;0.67;;;0.67;;
11986;SDS011;6053;51.382;6.768;2023-07-31T13:03:45;1.38;;;0.80;;
11986;SDS011;6053;51.382;6.768;2023-07-31T13:06:25;1.20;;;0.70;;
11986;SDS011;6053;51.382;6.768;2023-07-31T13:08:54;0.70;;;0.70;;
11986;SDS011;6053;51.382;6.768;2023-07-31T13:11:22;1.08;;;0.90;;
11986;SDS011;6053;51.382;6.768;2023-07-31T13:13:53;0.95;;;0.70;;
11986;SDS011;6053;51.382;6.768;2023-07-31T13:16:22;0.60;;;0.60;;
11986;SDS011;6053;51.382;6.768;2023-07-31T13:19:00;0.70;;;0.70;;
11986;SDS011;6053;51.382;6.768;2023-07-31T13:21:30;1.23;;;0.77;;
11986;SDS011;6053;51.382;6.768;2023-07-31T13:24:07;0.73;;;0.73;;
11986;SDS011;6053;51.382;6.768;2023-07-31T13:26:36;1.05;;;0.95;;
11986;SDS011;6053;51.382;6.768;2023-07-31T13:29:05;1.30;;;1.10;;
11986;SDS011;6053;51.382;6.768;2023-07-31T13:31:36;1.23;;;1.13;;
11986;SDS011;6053;51.382;6.768;2023-07-31T13:34:12;0.93;;;0.93;;
11986;SDS011;6053;51.382;6.768;2023-07-31T13:36:40;1.27;;;0.88;;
11986;SDS011;6053;51.382;6.768;2023-07-31T13:39:12;1.20;;;1.10;;
11986;SDS011;6053;51.382;6.768;2023-07-31T13:41:40;1.17;;;1.07;;
11986;SDS011;6053;51.382;6.768;2023-07-31T13:44:09;1.20;;;1.10;;
11986;SDS011;6053;51.382;6.768;2023-07-31T13:46:37;1.00;;;0.90;;
11986;SDS011;6053;51.382;6.768;2023-07-31T13:49:06;0.52;;;0.52;;
11986;SDS011;6053;51.382;6.768;2023-07-31T13:51:39;0.80;;;0.80;;
11986;SDS011;6053;51.382;6.768;2023-07-31T13:54:08;1.87;;;1.17;;
11986;SDS011;6053;51.382;6.768;2023-07-31T13:56:37;1.13;;;0.90;;
11986;SDS011;6053;51.382;6.768;2023-07-31T13:59:06;1.10;;;0.98;;
11986;SDS011;6053;51.382;6.768;2023-07-31T14:01:35;1.77;;;1.00;;
11986;SDS011;6053;51.382;6.768;2023-07-31T14:04:04;2.92;;;1.30;;
11986;SDS011;6053;51.382;6.768;2023-07-31T14:06:32;1.80;;;1.20;;
11986;SDS011;6053;51.382;6.768;2023-07-31T14:09:03;1.30;;;1.20;;
11986;SDS011;6053;51.382;6.768;2023-07-31T14:11:35;1.43;;;1.30;;
11986;SDS011;6053;51.382;6.768;2023-07-31T14:14:08;2.83;;;1.50;;
11986;SDS011;6053;51.382;6.768;2023-07-31T14:16:37;1.27;;;1.10;;
11986;SDS011;6053;51.382;6.768;2023-07-31T14:19:08;0.93;;;0.93;;
11986;SDS011;6053;51.382;6.768;2023-07-31T14:21:36;1.80;;;1.15;;
11986;SDS011;6053;51.382;6.768;2023-07-31T14:24:06;1.67;;;1.27;;
11986;SDS011;6053;51.382;6.768;2023-07-31T14:26:35;1.13;;;1.02;;
11986;SDS011;6053;51.382;6.768;2023-07-31T14:29:06;1.45;;;1.10;;
11986;SDS011;6053;51.382;6.768;2023-07-31T14:31:37;1.00;;;1.00;;
11986;SDS011;6053;51.382;6.768;2023-07-31T14:34:06;1.13;;;1.13;;
11986;SDS011;6053;51.382;6.768;2023-07-31T14:36:34;1.73;;;1.20;;
11986;SDS011;6053;51.382;6.768;2023-07-31T14:39:03;1.30;;;1.20;;
11986;SDS011;6053;51.382;6.768;2023-07-31T14:41:39;2.60;;;1.13;;
11986;SDS011;6053;51.382;6.768;2023-07-31T14:44:07;1.92;;;1.08;;
11986;SDS011;6053;51.382;6.768;2023-07-31T14:46:39;1.20;;;0.80;;
11986;SDS011;6053;51.382;6.768;2023-07-31T14:49:14;1.05;;;1.05;;
11986;SDS011;6053;51.382;6.768;2023-07-31T14:51:42;1.38;;;1.13;;
11986;SDS011;6053;51.382;6.768;2023-07-31T14:54:19;2.90;;;1.20;;
11986;SDS011;6053;51.382;6.768;2023-07-31T14:56:49;2.65;;;1.20;;
11986;SDS011;6053;51.382;6.768;2023-07-31T14:59:18;1.27;;;1.13;;
11986;SDS011;6053;51.382;6.768;2023-07-31T15:01:49;2.78;;;1.33;;
11986;SDS011;6053;51.382;6.768;2023-07-31T15:04:18;1.50;;;1.30;;
11986;SDS011;6053;51.382;6.768;2023-07-31T15:06:48;1.23;;;1.13;;
11986;SDS011;6053;51.382;6.768;2023-07-31T15:09:23;0.90;;;0.90;;
11986;SDS011;6053;51.382;6.768;2023-07-31T15:11:52;1.13;;;0.93;;
11986;SDS011;6053;51.382;6.768;2023-07-31T15:14:21;3.30;;;1.50;;
11986;SDS011;6053;51.382;6.768;2023-07-31T15:16:50;1.30;;;1.20;;
11986;SDS011;6053;51.382;6.768;2023-07-31T15:19:19;2.50;;;1.30;;
11986;SDS011;6053;51.382;6.768;2023-07-31T15:21:53;1.30;;;1.20;;
11986;SDS011;6053;51.382;6.768;2023-07-31T15:24:22;1.80;;;1.30;;
11986;SDS011;6053;51.382;6.768;2023-07-31T15:26:51;1.73;;;1.40;;
11986;SDS011;6053;51.382;6.768;2023-07-31T15:29:21;1.60;;;1.08;;